createdAt,value
2023-05-06T00:00:33.481Z,77.6780
2023-05-06T00:01:41.448Z,77.6421
2023-05-06T00:02:49.678Z,77.5861
2023-05-06T00:03:57.838Z,77.5375
2023-05-06T00:05:05.624Z,77.5496
2023-05-06T00:06:13.797Z,77.5636
2023-05-06T00:07:21.991Z,77.6187
2023-05-06T00:08:29.857Z,77.5497
2023-05-06T00:09:37.998Z,77.4675
2023-05-06T00:10:45.888Z,77.3724
2023-05-06T00:11:54.084Z,77.3479
2023-05-06T00:13:02.222Z,77.3060
2023-05-06T00:14:10.190Z,77.3081
2023-05-06T00:15:18.364Z,77.3000
2023-05-06T00:16:26.352Z,77.2551
2023-05-06T00:17:34.400Z,77.2264
2023-05-06T00:18:42.512Z,77.2067
2023-05-06T00:19:50.480Z,77.2297
2023-05-06T00:20:58.393Z,77.2291
2023-05-06T00:22:06.497Z,77.3577
2023-05-06T00:23:14.642Z,77.4027
2023-05-06T00:24:22.734Z,77.5020
2023-05-06T00:25:30.717Z,77.6021
2023-05-06T00:26:38.703Z,77.4725
2023-05-06T00:27:46.921Z,77.3341
2023-05-06T00:28:54.939Z,77.3116
2023-05-06T00:30:02.965Z,77.2796
2023-05-06T00:31:11.240Z,77.2023
2023-05-06T00:32:19.177Z,77.0206
2023-05-06T00:33:27.031Z,76.9439
2023-05-06T00:34:35.277Z,76.9826
2023-05-06T00:35:43.272Z,76.9893
2023-05-06T00:36:51.460Z,76.8637
2023-05-06T00:37:59.513Z,76.8563
2023-05-06T00:39:07.489Z,77.0024
2023-05-06T00:40:15.513Z,77.0428
2023-05-06T00:41:23.602Z,76.9512
2023-05-06T00:42:31.685Z,76.7751
2023-05-06T00:43:39.691Z,76.7020
2023-05-06T00:44:47.609Z,76.5556
2023-05-06T00:45:55.993Z,76.4481
2023-05-06T00:47:03.819Z,76.5642
2023-05-06T00:48:11.991Z,76.7038
2023-05-06T00:49:19.834Z,76.7719
2023-05-06T00:50:27.992Z,76.5831
2023-05-06T00:51:36.081Z,76.4040
2023-05-06T00:52:44.212Z,76.5088
2023-05-06T00:53:52.276Z,76.7796
2023-05-06T00:55:00.315Z,77.1137
2023-05-06T00:56:08.198Z,77.3092
2023-05-06T00:57:16.523Z,77.3922
2023-05-06T00:58:24.506Z,77.2403
2023-05-06T00:59:32.472Z,77.2286
2023-05-06T01:00:40.514Z,77.2942
2023-05-06T01:01:48.598Z,77.2938
2023-05-06T01:02:56.907Z,77.1307
2023-05-06T01:04:04.754Z,76.9837
2023-05-06T01:05:12.812Z,76.9337
2023-05-06T01:06:20.999Z,76.9238
2023-05-06T01:07:28.883Z,76.8824
2023-05-06T01:08:36.980Z,76.8790
2023-05-06T01:09:44.881Z,76.8224
2023-05-06T01:10:53.064Z,76.7409
2023-05-06T01:12:01.131Z,76.5741
2023-05-06T01:13:09.335Z,76.4331
2023-05-06T01:14:17.212Z,76.3646
2023-05-06T01:15:25.262Z,76.3370
2023-05-06T01:16:33.384Z,76.3263
2023-05-06T01:17:41.545Z,76.3157
2023-05-06T01:18:49.506Z,76.3893
2023-05-06T01:19:57.500Z,76.3537
2023-05-06T01:21:05.562Z,76.3142
2023-05-06T01:22:13.786Z,76.2424
2023-05-06T01:23:21.835Z,76.1611
2023-05-06T01:24:29.763Z,76.0955
2023-05-06T01:25:37.754Z,76.0104
2023-05-06T01:26:45.838Z,75.9319
2023-05-06T01:27:53.898Z,75.7880
2023-05-06T01:29:02.049Z,75.7366
2023-05-06T01:30:10.010Z,75.7692
2023-05-06T01:31:18.105Z,75.7831
2023-05-06T01:32:26.010Z,75.7554
2023-05-06T01:33:34.293Z,75.8090
2023-05-06T01:34:42.393Z,75.9124
2023-05-06T01:35:50.284Z,76.0467
2023-05-06T01:36:58.471Z,76.1768
2023-05-06T01:38:06.438Z,76.2446
2023-05-06T01:39:14.520Z,76.3661
2023-05-06T01:40:22.602Z,76.4745
2023-05-06T01:41:30.614Z,76.4929
2023-05-06T01:42:38.806Z,76.3596
2023-05-06T01:43:46.719Z,76.3082
2023-05-06T01:44:54.608Z,76.2819
2023-05-06T01:46:02.814Z,76.2614
2023-05-06T01:47:11.006Z,76.2358
2023-05-06T01:48:19.015Z,76.1525
2023-05-06T01:49:27.051Z,76.2149
2023-05-06T01:50:34.928Z,76.2848
2023-05-06T01:51:43.447Z,76.3094
2023-05-06T01:52:51.104Z,76.3682
2023-05-06T01:53:59.252Z,76.4098
2023-05-06T01:55:07.471Z,76.2486
2023-05-06T01:56:15.165Z,76.0817
2023-05-06T01:57:23.371Z,75.9718
2023-05-06T01:58:31.560Z,75.9858
2023-05-06T01:59:39.534Z,76.0673
2023-05-06T02:00:47.497Z,76.0824
2023-05-06T02:01:55.775Z,76.1681
2023-05-06T02:03:03.695Z,76.2345
2023-05-06T02:04:11.827Z,76.2953
2023-05-06T02:05:19.732Z,76.2925
2023-05-06T02:06:27.788Z,76.2840
2023-05-06T02:07:35.942Z,76.2548
2023-05-06T02:08:43.960Z,76.3022
2023-05-06T02:09:51.840Z,76.2208
2023-05-06T02:11:00.429Z,76.0784
2023-05-06T02:12:08.078Z,76.0173
2023-05-06T02:13:16.197Z,75.9985
2023-05-06T02:14:24.324Z,75.8054
2023-05-06T02:15:32.182Z,75.6344
2023-05-06T02:16:40.422Z,75.5348
2023-05-06T02:17:48.472Z,75.5481
2023-05-06T02:18:56.362Z,75.4517
2023-05-06T02:20:04.549Z,75.4553
2023-05-06T02:21:12.732Z,75.4961
2023-05-06T02:22:20.808Z,75.4905
2023-05-06T02:23:28.766Z,75.6430
2023-05-06T02:24:36.734Z,75.8307
2023-05-06T02:25:44.851Z,75.9372
2023-05-06T02:26:52.753Z,76.0124
2023-05-06T02:28:00.930Z,75.8947
2023-05-06T02:29:09.021Z,75.8473
2023-05-06T02:30:17.210Z,75.7674
2023-05-06T02:31:25.141Z,75.5760
2023-05-06T02:32:33.026Z,75.5646
2023-05-06T02:33:41.301Z,75.5604
2023-05-06T02:34:49.291Z,75.6135
2023-05-06T02:35:57.549Z,75.5189
2023-05-06T02:37:05.363Z,75.5361
2023-05-06T02:38:13.431Z,75.4481
2023-05-06T02:39:21.544Z,75.3993
2023-05-06T02:40:29.621Z,75.3962
2023-05-06T02:41:37.575Z,75.4757
2023-05-06T02:42:45.656Z,75.5462
2023-05-06T02:43:53.717Z,75.6916
2023-05-06T02:45:01.797Z,75.8293
2023-05-06T02:46:09.885Z,76.0019
2023-05-06T02:47:17.856Z,76.0491
2023-05-06T02:48:25.905Z,75.9832
2023-05-06T02:49:33.929Z,75.9730
2023-05-06T02:50:41.834Z,75.8271
2023-05-06T02:51:50.194Z,75.7772
2023-05-06T02:52:58.111Z,75.8184
2023-05-06T02:54:06.157Z,75.7783
2023-05-06T02:55:14.422Z,75.7553
2023-05-06T02:56:22.123Z,75.8587
2023-05-06T02:57:30.324Z,75.8555
2023-05-06T02:58:38.329Z,75.8596
2023-05-06T02:59:46.429Z,75.8117
2023-05-06T03:00:54.639Z,75.7897
2023-05-06T03:02:02.489Z,75.8765
2023-05-06T03:03:10.677Z,75.9306
2023-05-06T03:04:18.675Z,75.9758
2023-05-06T03:05:26.698Z,76.0037
2023-05-06T03:06:34.694Z,75.9848
2023-05-06T03:07:42.644Z,76.1370
2023-05-06T03:08:50.849Z,76.1062
2023-05-06T03:09:58.754Z,76.0674
2023-05-06T03:11:08.239Z,76.0723
2023-05-06T03:12:14.981Z,76.1472
2023-05-06T03:13:23.009Z,76.1368
2023-05-06T03:14:31.101Z,76.0925
2023-05-06T03:15:39.028Z,76.1238
2023-05-06T03:16:47.393Z,76.1809
2023-05-06T03:17:55.332Z,76.2579
2023-05-06T03:19:03.216Z,76.3062
2023-05-06T03:20:11.481Z,76.4007
2023-05-06T03:21:19.485Z,76.4412
2023-05-06T03:22:27.729Z,76.4638
2023-05-06T03:23:35.617Z,76.4449
2023-05-06T03:24:43.586Z,76.3577
2023-05-06T03:25:51.669Z,76.2460
2023-05-06T03:26:59.968Z,76.2196
2023-05-06T03:28:07.808Z,76.1734
2023-05-06T03:29:15.903Z,76.1352
2023-05-06T03:30:23.778Z,76.2590
2023-05-06T03:31:31.963Z,76.2675
2023-05-06T03:32:40.011Z,76.2204
2023-05-06T03:33:48.007Z,76.1334
2023-05-06T03:34:56.155Z,76.1336
2023-05-06T03:36:04.012Z,76.1322
2023-05-06T03:37:12.307Z,76.1549
2023-05-06T03:38:20.209Z,76.1091
2023-05-06T03:39:28.417Z,76.2032
2023-05-06T03:40:36.373Z,76.2625
2023-05-06T03:41:44.314Z,76.3901
2023-05-06T03:42:52.440Z,76.5058
2023-05-06T03:44:00.509Z,76.6155
2023-05-06T03:45:09.233Z,76.7460
2023-05-06T03:46:16.700Z,76.8529
2023-05-06T03:47:24.691Z,76.9600
2023-05-06T03:48:32.774Z,77.0681
2023-05-06T03:49:41.068Z,77.2004
2023-05-06T03:50:48.805Z,77.2733
2023-05-06T03:51:56.929Z,77.3097
2023-05-06T03:53:04.855Z,77.3072
2023-05-06T03:54:13.012Z,77.2687
2023-05-06T03:55:21.087Z,77.2657
2023-05-06T03:56:29.059Z,77.3643
2023-05-06T03:57:37.178Z,77.4692
2023-05-06T03:58:45.250Z,77.4934
2023-05-06T03:59:53.458Z,77.4825
2023-05-06T04:01:01.380Z,77.4440
2023-05-06T04:02:09.480Z,77.3009
2023-05-06T04:03:17.724Z,77.1735
2023-05-06T04:04:25.372Z,77.0776
2023-05-06T04:05:33.655Z,77.0176
2023-05-06T04:06:41.692Z,77.0226
2023-05-06T04:07:49.677Z,77.1590
2023-05-06T04:08:57.682Z,77.1392
2023-05-06T04:10:05.737Z,77.1733
2023-05-06T04:11:13.837Z,77.1771
2023-05-06T04:12:21.916Z,77.2075
2023-05-06T04:13:30.000Z,77.2997
2023-05-06T04:14:38.088Z,77.3860
2023-05-06T04:15:46.099Z,77.2932
2023-05-06T04:16:54.241Z,77.1291
2023-05-06T04:18:02.213Z,76.9928
2023-05-06T04:19:10.337Z,76.9484
2023-05-06T04:20:18.302Z,77.0303
2023-05-06T04:21:26.250Z,77.0983
2023-05-06T04:22:34.388Z,77.1135
2023-05-06T04:23:42.410Z,77.1316
2023-05-06T04:24:50.510Z,77.1918
2023-05-06T04:25:58.541Z,77.1151
2023-05-06T04:27:06.582Z,77.0842
2023-05-06T04:28:14.650Z,77.0897
2023-05-06T04:29:22.702Z,77.0533
2023-05-06T04:30:30.770Z,77.0631
2023-05-06T04:31:38.923Z,77.1639
2023-05-06T04:32:46.930Z,77.1790
2023-05-06T04:33:54.849Z,77.0869
2023-05-06T04:35:02.997Z,76.9977
2023-05-06T04:36:11.022Z,76.9067
2023-05-06T04:37:19.154Z,76.8658
2023-05-06T04:38:27.214Z,76.8906
2023-05-06T04:39:35.188Z,76.9258
2023-05-06T04:40:43.308Z,76.9353
2023-05-06T04:41:51.324Z,76.9207
2023-05-06T04:42:59.396Z,76.8630
2023-05-06T04:44:07.429Z,76.8133
2023-05-06T04:45:15.483Z,76.7703
2023-05-06T04:46:23.670Z,76.8515
2023-05-06T04:47:31.700Z,77.0595
2023-05-06T04:48:39.681Z,77.2102
2023-05-06T04:49:47.647Z,77.1721
2023-05-06T04:50:55.688Z,77.2658
2023-05-06T04:52:03.777Z,77.3750
2023-05-06T04:53:11.802Z,77.4124
2023-05-06T04:54:19.881Z,77.4009
2023-05-06T04:55:27.932Z,77.3591
2023-05-06T04:56:36.138Z,77.4303
2023-05-06T04:57:44.103Z,77.4243
2023-05-06T04:58:52.027Z,77.4365
2023-05-06T05:00:00.223Z,77.4182
2023-05-06T05:01:08.277Z,77.4304
2023-05-06T05:02:16.322Z,77.3499
2023-05-06T05:03:24.522Z,77.2994
2023-05-06T05:04:32.309Z,77.1630
2023-05-06T05:05:40.470Z,77.1179
2023-05-06T05:06:48.473Z,77.2344
2023-05-06T05:07:56.617Z,77.2490
2023-05-06T05:09:04.760Z,77.3758
2023-05-06T05:10:12.658Z,77.4060
2023-05-06T05:11:20.638Z,77.4662
2023-05-06T05:12:28.809Z,77.5008
2023-05-06T05:13:36.912Z,77.5571
2023-05-06T05:14:44.967Z,77.7403
2023-05-06T05:15:52.982Z,77.8985
2023-05-06T05:17:01.039Z,77.9899
2023-05-06T05:18:09.224Z,78.1254
2023-05-06T05:19:17.156Z,77.9753
2023-05-06T05:20:25.190Z,77.8218
2023-05-06T05:21:33.248Z,77.7709
2023-05-06T05:22:41.368Z,77.6248
2023-05-06T05:23:49.412Z,77.4475
2023-05-06T05:24:57.362Z,77.2604
2023-05-06T05:26:05.440Z,77.1555
2023-05-06T05:27:13.483Z,76.9911
2023-05-06T05:28:21.594Z,76.8906
2023-05-06T05:29:29.592Z,76.9757
2023-05-06T05:30:37.613Z,77.1618
2023-05-06T05:31:45.791Z,77.3369
2023-05-06T05:32:53.971Z,77.2999
2023-05-06T05:34:01.961Z,77.0538
2023-05-06T05:35:10.187Z,76.7301
2023-05-06T05:36:17.874Z,76.5223
2023-05-06T05:37:26.020Z,76.3105
2023-05-06T05:38:34.111Z,76.1590
2023-05-06T05:39:42.156Z,76.1118
2023-05-06T05:40:50.271Z,75.9319
2023-05-06T05:41:58.224Z,75.8503
2023-05-06T05:43:06.300Z,75.9889
2023-05-06T05:44:14.363Z,76.1647
2023-05-06T05:45:22.431Z,76.1505
2023-05-06T05:46:30.460Z,75.9305
2023-05-06T05:47:38.461Z,75.8433
2023-05-06T05:48:46.525Z,75.7521
2023-05-06T05:49:54.645Z,75.5523
2023-05-06T05:51:02.648Z,75.3972
2023-05-06T05:52:10.748Z,75.2841
2023-05-06T05:53:18.719Z,75.2055
2023-05-06T05:54:26.840Z,75.3121
2023-05-06T05:55:34.879Z,75.4446
2023-05-06T05:56:42.959Z,75.5981
2023-05-06T05:57:51.056Z,75.9007
2023-05-06T05:58:59.076Z,76.0508
2023-05-06T06:00:07.095Z,75.8764
2023-05-06T06:01:15.237Z,75.9206
2023-05-06T06:02:23.375Z,76.0123
2023-05-06T06:03:31.440Z,76.2696
2023-05-06T06:04:39.574Z,76.5121
2023-05-06T06:05:47.414Z,76.6441
2023-05-06T06:06:55.502Z,76.8842
2023-05-06T06:08:03.981Z,76.8877
2023-05-06T06:09:11.579Z,76.7645
2023-05-06T06:10:19.588Z,76.5281
2023-05-06T06:11:27.703Z,76.3187
2023-05-06T06:12:35.913Z,76.0638
2023-05-06T06:13:43.770Z,75.8730
2023-05-06T06:14:51.901Z,75.5474
2023-05-06T06:15:59.900Z,75.3104
2023-05-06T06:17:07.962Z,75.0156
2023-05-06T06:18:16.079Z,74.9631
2023-05-06T06:19:24.108Z,75.0515
2023-05-06T06:20:32.133Z,74.9657
2023-05-06T06:21:40.172Z,74.8597
2023-05-06T06:22:48.518Z,74.6382
2023-05-06T06:23:56.449Z,74.6268
2023-05-06T06:25:04.398Z,74.8913
2023-05-06T06:26:12.568Z,75.0493
2023-05-06T06:27:20.545Z,74.9822
2023-05-06T06:28:28.629Z,74.8839
2023-05-06T06:29:36.761Z,74.8497
2023-05-06T06:30:44.610Z,74.7457
2023-05-06T06:31:52.953Z,74.5460
2023-05-06T06:33:00.897Z,74.4493
2023-05-06T06:34:08.930Z,74.2600
2023-05-06T06:35:16.912Z,74.2566
2023-05-06T06:36:24.944Z,74.2871
2023-05-06T06:37:33.045Z,74.0956
2023-05-06T06:38:41.058Z,73.9854
2023-05-06T06:39:49.223Z,74.0303
2023-05-06T06:40:57.320Z,74.1012
2023-05-06T06:42:05.305Z,73.9700
2023-05-06T06:43:13.220Z,73.7390
2023-05-06T06:44:21.379Z,73.6623
2023-05-06T06:45:29.413Z,73.4911
2023-05-06T06:46:37.439Z,73.2313
2023-05-06T06:47:45.545Z,73.1344
2023-05-06T06:48:53.470Z,73.4596
2023-05-06T06:50:01.672Z,73.9047
2023-05-06T06:51:09.577Z,74.1859
2023-05-06T06:52:17.744Z,74.2254
2023-05-06T06:53:25.802Z,74.1111
2023-05-06T06:54:33.885Z,73.8860
2023-05-06T06:55:41.914Z,73.9157
2023-05-06T06:56:49.963Z,73.8505
2023-05-06T06:57:58.063Z,73.9302
2023-05-06T06:59:06.145Z,73.8352
2023-05-06T07:00:14.358Z,73.8443
2023-05-06T07:01:22.242Z,73.7543
2023-05-06T07:02:30.195Z,73.9198
2023-05-06T07:03:38.328Z,73.9703
2023-05-06T07:04:46.426Z,73.8951
2023-05-06T07:05:54.395Z,73.9442
2023-05-06T07:07:02.460Z,74.0041
2023-05-06T07:08:10.608Z,74.1140
2023-05-06T07:09:18.660Z,74.2053
2023-05-06T07:10:26.874Z,73.9549
2023-05-06T07:11:34.605Z,73.5758
2023-05-06T07:12:42.773Z,73.6864
2023-05-06T07:13:50.841Z,73.5757
2023-05-06T07:14:58.852Z,73.1621
2023-05-06T07:16:07.017Z,72.8298
2023-05-06T07:17:14.983Z,72.5873
2023-05-06T07:18:23.145Z,72.1388
2023-05-06T07:19:31.156Z,71.6233
2023-05-06T07:20:39.356Z,71.0205
2023-05-06T07:21:47.257Z,70.6489
2023-05-06T07:22:55.452Z,70.5339
2023-05-06T07:24:03.341Z,70.8758
2023-05-06T07:25:11.735Z,70.8179
2023-05-06T07:26:19.439Z,70.7910
2023-05-06T07:27:27.514Z,70.6770
2023-05-06T07:28:35.511Z,70.5618
2023-05-06T07:29:43.778Z,70.2274
2023-05-06T07:30:51.689Z,70.3097
2023-05-06T07:31:59.846Z,70.4785
2023-05-06T07:33:07.945Z,70.5630
2023-05-06T07:34:15.865Z,70.3211
2023-05-06T07:35:24.028Z,70.4297
2023-05-06T07:36:32.094Z,71.0297
2023-05-06T07:37:40.172Z,71.2607
2023-05-06T07:38:48.178Z,71.6625
2023-05-06T07:39:56.169Z,71.7391
2023-05-06T07:41:04.170Z,71.6438
2023-05-06T07:42:12.264Z,71.7019
2023-05-06T07:43:20.398Z,71.4305
2023-05-06T07:44:28.428Z,71.3920
2023-05-06T07:45:36.396Z,71.6784
2023-05-06T07:46:44.635Z,71.8454
2023-05-06T07:47:52.848Z,71.7601
2023-05-06T07:49:00.804Z,71.7550
2023-05-06T07:50:08.775Z,71.8483
2023-05-06T07:51:16.771Z,71.6625
2023-05-06T07:52:24.750Z,71.6066
2023-05-06T07:53:32.842Z,71.4332
2023-05-06T07:54:40.841Z,71.0582
2023-05-06T07:55:49.010Z,70.9571
2023-05-06T07:56:57.028Z,71.1769
2023-05-06T07:58:05.066Z,71.7018
2023-05-06T07:59:13.251Z,72.0483
2023-05-06T08:00:21.121Z,72.0516
2023-05-06T08:01:29.357Z,72.4268
2023-05-06T08:02:37.353Z,72.2551
2023-05-06T08:03:45.474Z,72.3215
2023-05-06T08:04:53.622Z,72.4241
2023-05-06T08:06:01.540Z,72.4087
2023-05-06T08:07:09.602Z,72.5217
2023-05-06T08:08:17.682Z,72.0359
2023-05-06T08:09:25.630Z,71.8133
2023-05-06T08:10:33.676Z,72.0025
2023-05-06T08:11:41.714Z,71.8182
2023-05-06T08:12:49.811Z,71.4035
2023-05-06T08:13:57.863Z,70.9514
2023-05-06T08:15:06.021Z,70.3237
2023-05-06T08:16:14.052Z,69.9223
2023-05-06T08:17:22.106Z,69.4026
2023-05-06T08:18:30.439Z,69.3518
2023-05-06T08:19:38.197Z,69.5604
2023-05-06T08:20:46.201Z,68.7895
2023-05-06T08:21:54.320Z,68.0740
2023-05-06T08:23:02.326Z,67.5992
2023-05-06T08:24:10.403Z,67.1907
2023-05-06T08:25:18.482Z,67.0790
2023-05-06T08:26:26.558Z,67.2621
2023-05-06T08:27:34.614Z,67.3941
2023-05-06T08:28:42.642Z,67.6986
2023-05-06T08:29:50.767Z,67.2264
2023-05-06T08:30:58.812Z,66.0385
2023-05-06T08:32:06.974Z,65.3243
2023-05-06T08:33:14.905Z,65.9884
2023-05-06T08:34:23.058Z,66.2165
2023-05-06T08:35:31.031Z,66.4200
2023-05-06T08:36:39.138Z,66.2682
2023-05-06T08:37:47.097Z,66.2493
2023-05-06T08:38:55.139Z,66.5086
2023-05-06T08:40:03.241Z,66.1486
2023-05-06T08:41:11.297Z,66.0564
2023-05-06T08:42:19.307Z,66.3525
2023-05-06T08:43:27.349Z,66.6448
2023-05-06T08:44:35.452Z,66.1350
2023-05-06T08:45:43.528Z,66.0026
2023-05-06T08:46:51.588Z,66.1417
2023-05-06T08:47:59.732Z,66.3721
2023-05-06T08:49:07.759Z,66.9329
2023-05-06T08:50:15.682Z,67.6510
2023-05-06T08:51:26.007Z,67.9030
2023-05-06T08:52:31.826Z,68.1519
2023-05-06T08:53:39.855Z,68.4482
2023-05-06T08:54:47.927Z,68.6068
2023-05-06T08:55:55.934Z,68.4592
2023-05-06T08:57:04.024Z,67.8703
2023-05-06T08:58:12.248Z,68.1764
2023-05-06T08:59:20.142Z,68.6000
2023-05-06T09:00:28.205Z,69.0314
2023-05-06T09:01:36.363Z,69.0095
2023-05-06T09:02:44.468Z,68.9305
2023-05-06T09:03:52.490Z,68.2625
2023-05-06T09:05:00.429Z,67.3830
2023-05-06T09:06:08.538Z,67.0443
2023-05-06T09:07:16.567Z,66.8244
2023-05-06T09:08:24.689Z,66.3496
2023-05-06T09:09:32.623Z,66.9729
2023-05-06T09:10:40.704Z,67.8253
2023-05-06T09:11:48.730Z,68.3354
2023-05-06T09:12:56.909Z,67.9492
2023-05-06T09:14:04.886Z,68.0208
2023-05-06T09:15:13.185Z,67.2560
2023-05-06T09:16:21.066Z,66.2747
2023-05-06T09:17:29.084Z,66.2093
2023-05-06T09:18:37.184Z,67.0288
2023-05-06T09:19:45.160Z,67.4980
2023-05-06T09:20:53.252Z,67.6080
2023-05-06T09:22:01.402Z,66.5000
2023-05-06T09:23:09.408Z,66.2429
2023-05-06T09:24:17.390Z,66.0820
2023-05-06T09:25:25.465Z,65.6324
2023-05-06T09:26:33.523Z,65.8137
2023-05-06T09:27:41.706Z,65.8847
2023-05-06T09:28:49.764Z,65.2743
2023-05-06T09:29:57.676Z,64.9307
2023-05-06T09:31:05.718Z,64.6533
2023-05-06T09:32:13.804Z,65.0876
2023-05-06T09:33:21.838Z,65.3212
2023-05-06T09:34:29.869Z,65.5802
2023-05-06T09:35:37.964Z,65.6147
2023-05-06T09:36:46.160Z,65.9440
2023-05-06T09:37:54.069Z,66.1739
2023-05-06T09:39:02.151Z,66.2838
2023-05-06T09:40:10.174Z,66.6335
2023-05-06T09:41:18.136Z,66.8754
2023-05-06T09:42:26.329Z,67.2771
2023-05-06T09:43:34.303Z,67.3135
2023-05-06T09:44:42.358Z,67.3208
2023-05-06T09:45:50.434Z,67.4556
2023-05-06T09:46:58.541Z,67.7031
2023-05-06T09:48:06.621Z,67.4571
2023-05-06T09:49:14.587Z,67.3753
2023-05-06T09:50:22.634Z,66.8892
2023-05-06T09:51:30.728Z,66.3515
2023-05-06T09:52:38.690Z,65.3418
2023-05-06T09:53:46.746Z,64.3919
2023-05-06T09:54:54.957Z,63.9660
2023-05-06T09:56:02.915Z,62.7701
2023-05-06T09:57:11.016Z,62.9693
2023-05-06T09:58:19.204Z,63.0361
2023-05-06T09:59:27.101Z,62.5584
2023-05-06T10:00:35.148Z,62.2817
2023-05-06T10:01:43.280Z,61.3925
2023-05-06T10:02:51.447Z,61.4484
2023-05-06T10:03:59.447Z,60.2246
2023-05-06T10:05:07.625Z,57.9141
2023-05-06T10:06:15.513Z,55.5625
2023-05-06T10:07:23.525Z,53.4296
2023-05-06T10:08:31.661Z,52.5189
2023-05-06T10:09:39.607Z,51.4938
2023-05-06T10:10:47.906Z,50.4931
2023-05-06T10:11:55.739Z,49.3755
2023-05-06T10:13:03.849Z,48.1688
2023-05-06T10:14:12.058Z,47.4798
2023-05-06T10:15:19.909Z,47.0103
2023-05-06T10:16:28.015Z,46.2783
2023-05-06T10:17:36.318Z,45.4495
2023-05-06T10:18:44.031Z,44.2062
2023-05-06T10:19:52.198Z,43.7691
2023-05-06T10:21:00.206Z,42.5699
2023-05-06T10:22:08.197Z,41.6754
2023-05-06T10:23:16.410Z,40.8287
2023-05-06T10:24:24.395Z,40.9548
2023-05-06T10:25:32.555Z,40.3713
2023-05-06T10:26:40.564Z,39.6644
2023-05-06T10:27:48.802Z,39.4555
2023-05-06T10:28:56.660Z,38.6193
2023-05-06T10:30:04.632Z,38.5113
2023-05-06T10:31:12.782Z,38.0960
2023-05-06T10:32:20.982Z,37.4177
2023-05-06T10:33:29.016Z,36.8795
2023-05-06T10:34:37.058Z,36.3602
2023-05-06T10:35:45.081Z,36.2557
2023-05-06T10:36:53.085Z,36.0990
2023-05-06T10:38:01.304Z,35.8452
2023-05-06T10:39:09.284Z,36.1976
2023-05-06T10:40:17.342Z,35.8288
2023-05-06T10:41:25.450Z,36.1411
2023-05-06T10:42:33.492Z,36.1947
2023-05-06T10:43:41.603Z,36.1146
2023-05-06T10:44:49.528Z,35.8516
2023-05-06T10:45:57.722Z,35.8134
2023-05-06T10:47:05.737Z,36.0788
2023-05-06T10:48:13.786Z,36.5843
2023-05-06T10:49:21.933Z,36.2851
2023-05-06T10:50:29.924Z,36.1676
2023-05-06T10:51:38.009Z,36.2233
2023-05-06T10:52:46.113Z,35.6624
2023-05-06T10:53:54.098Z,36.0324
2023-05-06T10:55:02.261Z,35.9581
2023-05-06T10:56:10.151Z,36.3971
2023-05-06T10:57:18.260Z,36.2818
2023-05-06T10:58:26.463Z,36.4507
2023-05-06T10:59:34.478Z,35.8874
2023-05-06T11:00:42.537Z,35.7897
2023-05-06T11:01:50.494Z,36.4804
2023-05-06T11:02:58.774Z,36.1658
2023-05-06T11:04:06.867Z,36.1833
2023-05-06T11:05:14.787Z,37.2917
2023-05-06T11:06:22.855Z,38.1913
2023-05-06T11:07:30.849Z,38.9259
2023-05-06T11:08:38.911Z,38.6587
2023-05-06T11:09:46.994Z,38.2443
2023-05-06T11:10:55.058Z,38.3300
2023-05-06T11:12:03.125Z,38.8439
2023-05-06T11:13:11.159Z,38.9282
2023-05-06T11:14:19.443Z,40.1343
2023-05-06T11:15:27.297Z,40.8211
2023-05-06T11:16:37.000Z,40.7197
2023-05-06T11:17:48.333Z,41.1434
2023-05-06T11:18:56.458Z,41.7031
2023-05-06T11:20:04.394Z,41.9038
2023-05-06T11:21:12.495Z,42.4135
2023-05-06T11:22:20.444Z,42.4545
2023-05-06T11:23:28.759Z,42.6346
2023-05-06T11:24:36.651Z,42.7635
2023-05-06T11:25:44.740Z,43.0919
2023-05-06T11:26:52.844Z,44.3025
2023-05-06T11:28:00.889Z,44.7880
2023-05-06T11:29:09.011Z,44.7441
2023-05-06T11:30:17.286Z,45.3059
2023-05-06T11:31:25.225Z,45.9947
2023-05-06T11:32:33.190Z,46.8836
2023-05-06T11:33:41.125Z,47.4631
2023-05-06T11:34:49.132Z,47.6430
2023-05-06T11:35:57.280Z,47.6601
2023-05-06T11:37:05.366Z,47.9116
2023-05-06T11:38:13.514Z,47.8894
2023-05-06T11:39:21.481Z,47.7980
2023-05-06T11:40:29.440Z,47.7138
2023-05-06T11:41:37.831Z,47.1998
2023-05-06T11:42:45.667Z,47.3174
2023-05-06T11:43:53.770Z,47.8677
2023-05-06T11:45:01.824Z,48.0969
2023-05-06T11:46:09.936Z,48.3316
2023-05-06T11:47:17.908Z,47.9613
2023-05-06T11:48:25.987Z,47.7078
2023-05-06T11:49:35.537Z,47.4903
2023-05-06T11:50:42.106Z,47.1861
2023-05-06T11:51:50.152Z,47.8051
2023-05-06T11:52:58.190Z,47.8586
2023-05-06T11:54:06.218Z,47.6502
2023-05-06T11:55:14.349Z,47.4238
2023-05-06T11:56:22.470Z,46.8787
2023-05-06T11:57:30.415Z,47.1968
2023-05-06T11:58:38.568Z,46.9398
2023-05-06T11:59:46.485Z,46.9376
2023-05-06T12:00:54.564Z,47.1678
2023-05-06T12:02:02.758Z,47.6224
2023-05-06T12:03:10.784Z,47.2317
2023-05-06T12:04:18.904Z,47.1402
2023-05-06T12:05:26.841Z,47.3477
2023-05-06T12:06:34.895Z,48.3562
2023-05-06T12:07:42.988Z,48.1249
2023-05-06T12:08:51.058Z,47.5401
2023-05-06T12:09:59.255Z,46.5524
2023-05-06T12:11:07.097Z,45.6730
2023-05-06T12:12:15.288Z,44.6072
2023-05-06T12:13:23.476Z,43.4302
2023-05-06T12:14:31.347Z,42.5666
2023-05-06T12:15:39.420Z,41.4323
2023-05-06T12:16:47.564Z,39.7856
2023-05-06T12:17:55.854Z,38.9023
2023-05-06T12:19:03.852Z,37.7392
2023-05-06T12:20:11.946Z,36.7579
2023-05-06T12:21:19.834Z,36.4395
2023-05-06T12:22:27.874Z,35.3742
2023-05-06T12:23:35.895Z,34.6854
2023-05-06T12:24:43.996Z,34.3320
2023-05-06T12:25:51.985Z,33.6013
2023-05-06T12:27:00.176Z,32.4890
2023-05-06T12:28:08.198Z,32.2285
2023-05-06T12:29:16.435Z,31.8905
2023-05-06T12:30:24.330Z,32.0074
2023-05-06T12:31:32.369Z,32.1375
2023-05-06T12:32:40.476Z,31.7924
2023-05-06T12:33:48.600Z,31.0905
2023-05-06T12:34:56.734Z,30.9461
2023-05-06T12:36:04.681Z,30.3171
2023-05-06T12:37:12.698Z,29.9699
2023-05-06T12:38:20.919Z,30.2228
2023-05-06T12:39:28.992Z,30.6462
2023-05-06T12:40:36.965Z,31.0099
2023-05-06T12:41:45.036Z,31.8115
2023-05-06T12:42:53.129Z,32.9296
2023-05-06T12:44:01.221Z,33.8293
2023-05-06T12:45:09.305Z,34.3013
2023-05-06T12:46:17.515Z,34.0795
2023-05-06T12:47:25.567Z,33.6508
2023-05-06T12:48:33.426Z,32.7983
2023-05-06T12:49:41.559Z,31.8981
2023-05-06T12:50:49.635Z,31.4276
2023-05-06T12:51:57.702Z,31.6450
2023-05-06T12:53:05.744Z,32.8011
2023-05-06T12:54:13.780Z,33.5029
2023-05-06T12:55:21.941Z,34.5803
2023-05-06T12:56:30.083Z,35.4026
2023-05-06T12:57:38.012Z,35.8950
2023-05-06T12:58:46.152Z,36.4651
2023-05-06T12:59:54.228Z,36.3875
2023-05-06T13:01:02.243Z,36.2102
2023-05-06T13:02:10.327Z,37.0890
2023-05-06T13:03:18.360Z,37.8378
2023-05-06T13:04:26.418Z,38.6860
2023-05-06T13:05:34.729Z,39.2262
2023-05-06T13:06:42.505Z,40.0820
2023-05-06T13:07:50.545Z,40.0671
2023-05-06T13:08:58.633Z,40.2445
2023-05-06T13:10:06.820Z,40.6191
2023-05-06T13:11:14.796Z,39.8124
2023-05-06T13:12:22.840Z,39.2804
2023-05-06T13:13:30.892Z,39.1456
2023-05-06T13:14:40.409Z,38.8518
2023-05-06T13:15:47.030Z,39.4133
2023-05-06T13:16:55.156Z,39.4859
2023-05-06T13:18:03.366Z,40.0184
2023-05-06T13:19:21.268Z,40.8816
2023-05-06T13:20:24.226Z,41.5123
2023-05-06T13:21:32.176Z,41.9690
2023-05-06T13:22:53.158Z,42.5762
2023-05-06T13:23:53.193Z,42.5694
2023-05-06T13:25:01.427Z,42.5699
2023-05-06T13:26:09.352Z,42.1027
2023-05-06T13:27:17.472Z,41.0252
2023-05-06T13:28:25.777Z,41.3141
2023-05-06T13:29:33.492Z,41.4767
2023-05-06T13:30:41.795Z,41.4012
2023-05-06T13:31:49.698Z,41.6309
2023-05-06T13:32:57.786Z,41.9881
2023-05-06T13:34:05.932Z,42.0969
2023-05-06T13:35:13.864Z,41.9702
2023-05-06T13:36:21.897Z,42.6346
2023-05-06T13:37:30.094Z,42.9341
2023-05-06T13:38:38.087Z,42.6478
2023-05-06T13:39:46.229Z,42.0427
2023-05-06T13:40:54.158Z,41.5014
2023-05-06T13:42:02.259Z,41.0264
2023-05-06T13:43:10.331Z,40.7771